Главная страница
METAR-TAF:

METAR-TAF

Аэропорты :

Каракас, Венесуэла

широта: 10-36N, долгота: 066-59W, высота над уровнем моря: 43 м

Текущие метеонаблюдения

Эта сводка был подготовлена 1 час и 5 минут назад, в 01:00 UTC
Ветер 2 Узел от восточно-юго-восточный
Температура 26°C
Влажность 79%
Давление 1013 hPa
Видимость 10 км и более
Нет облачности ниже 1500 м, и нет кучево-дождевой облачности

METAR: SVMI 100100Z 11002KT CAVOK 26/22 Q1013

Время: 22:05 (02:05 UTC)

Прогноз

Эта сводка был подготовлена 4 часа и 5 минут назад, в 22:00 UTC
Прогноз действительный с 10-го 00 UTC до 11-го 00 UTC
Ветер 5 Узел от восточный
Видимость 10 км и более
небольшая облачность на высоте 1600 фута
временами
С 10-го 00 UTC до 10-го 04 UTC
Ветер 4 Узел от восточно-северо-восточный
Видимость 10 км и более
небольшая облачность на высоте 1600 фута

TAF: SVMI 092200Z 1000/1100 09005KT 9999 FEW016 TX28/18Z TN22/08Z TEMPO 1000/1004 08005KT 07004KT 9999 FEW016

Метеонаблюдения и прогнозы для более 4000 аэропортов (сводки METAR и TAF).

Имеющиеся станции представлены на карте желтыми и красными точками.

Чтобы увидеть название станции, наведите на нее мышь.

Затем щелкните, чтобы увидеть метеонаблюдения и метеопрогнозы.

Управление картой: чтобы увеличить масштаб, щелкните зеленые кнопки с черным крестиком; чтобы уменьшить масштаб, щелкните зеленую кнопку с тире; для просмотра соседних карт щелкайте зеленые стрелки.


METAR-TAF: